sensor_id;sensor_type;location;lat;lon;timestamp;pressure;altitude;pressure_sealevel;temperature;humidity
39891;BME280;25564;53.312;9.790;2022-11-14T00:00:34;101443.31;;;8.89;96.47
39891;BME280;25564;53.312;9.790;2022-11-14T00:03:06;101443.31;;;8.88;95.93
39891;BME280;25564;53.312;9.790;2022-11-14T00:05:39;101448.59;;;8.86;95.97
39891;BME280;25564;53.312;9.790;2022-11-14T00:08:18;101442.41;;;8.84;95.97
39891;BME280;25564;53.312;9.790;2022-11-14T00:10:50;101438.00;;;8.80;96.26
39891;BME280;25564;53.312;9.790;2022-11-14T00:13:21;101435.34;;;8.80;96.29
39891;BME280;25564;53.312;9.790;2022-11-14T00:15:53;101423.88;;;8.78;96.11
39891;BME280;25564;53.312;9.790;2022-11-14T00:18:24;101431.81;;;8.78;95.66
39891;BME280;25564;53.312;9.790;2022-11-14T00:20:55;101423.88;;;8.75;96.13
39891;BME280;25564;53.312;9.790;2022-11-14T00:23:26;101410.66;;;8.73;96.14
39891;BME280;25564;53.312;9.790;2022-11-14T00:25:58;101404.47;;;8.71;95.60
39891;BME280;25564;53.312;9.790;2022-11-14T00:28:29;101403.59;;;8.68;95.68
39891;BME280;25564;53.312;9.790;2022-11-14T00:31:01;101402.69;;;8.66;95.53
39891;BME280;25564;53.312;9.790;2022-11-14T00:33:32;101402.69;;;8.64;96.21
39891;BME280;25564;53.312;9.790;2022-11-14T00:36:03;101396.53;;;8.64;95.81
39891;BME280;25564;53.312;9.790;2022-11-14T00:38:34;101402.69;;;8.64;95.63
39891;BME280;25564;53.312;9.790;2022-11-14T00:41:06;101406.22;;;8.63;95.55
39891;BME280;25564;53.312;9.790;2022-11-14T00:43:37;101412.38;;;8.61;95.56
39891;BME280;25564;53.312;9.790;2022-11-14T00:46:08;101404.44;;;8.59;95.76
39891;BME280;25564;53.312;9.790;2022-11-14T00:48:39;101409.75;;;8.58;95.97
39891;BME280;25564;53.312;9.790;2022-11-14T00:51:11;101413.25;;;8.57;95.60
39891;BME280;25564;53.312;9.790;2022-11-14T00:53:42;101391.22;;;8.55;95.87
39891;BME280;25564;53.312;9.790;2022-11-14T00:56:13;101393.84;;;8.53;96.01
39891;BME280;25564;53.312;9.790;2022-11-14T00:58:44;101400.03;;;8.53;95.64
39891;BME280;25564;53.312;9.790;2022-11-14T01:01:16;101398.25;;;8.52;95.70
39891;BME280;25564;53.312;9.790;2022-11-14T01:03:48;101388.56;;;8.50;95.96
39891;BME280;25564;53.312;9.790;2022-11-14T01:06:19;101381.50;;;8.49;96.09
39891;BME280;25564;53.312;9.790;2022-11-14T01:08:50;101376.22;;;8.49;95.62
39891;BME280;25564;53.312;9.790;2022-11-14T01:11:22;101377.97;;;8.48;96.16
39891;BME280;25564;53.312;9.790;2022-11-14T01:13:53;101376.22;;;8.47;95.62
39891;BME280;25564;53.312;9.790;2022-11-14T01:16:24;101373.56;;;8.47;96.04
39891;BME280;25564;53.312;9.790;2022-11-14T01:18:56;101367.41;;;8.47;95.68
39891;BME280;25564;53.312;9.790;2022-11-14T01:21:27;101355.94;;;8.46;95.52
39891;BME280;25564;53.312;9.790;2022-11-14T01:23:58;101348.88;;;8.47;95.80
39891;BME280;25564;53.312;9.790;2022-11-14T01:26:29;101348.00;;;8.46;96.14
39891;BME280;25564;53.312;9.790;2022-11-14T01:29:01;101363.00;;;8.47;95.71
39891;BME280;25564;53.312;9.790;2022-11-14T01:31:32;101355.94;;;8.45;95.71
39891;BME280;25564;53.312;9.790;2022-11-14T01:34:03;101360.34;;;8.44;95.84
39891;BME280;25564;53.312;9.790;2022-11-14T01:36:34;101350.63;;;8.43;96.00
39891;BME280;25564;53.312;9.790;2022-11-14T01:39:06;101348.88;;;8.42;96.13
39891;BME280;25564;53.312;9.790;2022-11-14T01:41:37;101347.09;;;8.41;95.51
39891;BME280;25564;53.312;9.790;2022-11-14T01:44:12;101341.81;;;8.41;96.05
39891;BME280;25564;53.312;9.790;2022-11-14T01:46:45;101341.81;;;8.41;95.80
39891;BME280;25564;53.312;9.790;2022-11-14T01:49:18;101338.28;;;8.41;95.69
39891;BME280;25564;53.312;9.790;2022-11-14T01:51:54;101334.75;;;8.40;95.81
39891;BME280;25564;53.312;9.790;2022-11-14T01:54:29;101332.13;;;8.39;95.32
39891;BME280;25564;53.312;9.790;2022-11-14T01:57:03;101331.22;;;8.38;95.41
39891;BME280;25564;53.312;9.790;2022-11-14T01:59:39;101324.19;;;8.37;95.32
39891;BME280;25564;53.312;9.790;2022-11-14T02:02:15;101311.84;;;8.36;95.86
39891;BME280;25564;53.312;9.790;2022-11-14T02:04:57;101324.19;;;8.36;95.33
39891;BME280;25564;53.312;9.790;2022-11-14T02:07:31;101313.59;;;8.34;95.85
39891;BME280;25564;53.312;9.790;2022-11-14T02:10:05;101317.13;;;8.33;95.58
39891;BME280;25564;53.312;9.790;2022-11-14T02:12:37;101310.03;;;8.32;96.00
39891;BME280;25564;53.312;9.790;2022-11-14T02:15:08;101319.78;;;8.32;95.18
39891;BME280;25564;53.312;9.790;2022-11-14T02:17:40;101314.47;;;8.30;95.49
39891;BME280;25564;53.312;9.790;2022-11-14T02:22:43;101300.38;;;8.30;95.64
39891;BME280;25564;53.312;9.790;2022-11-14T02:25:15;101304.78;;;8.29;95.81
39891;BME280;25564;53.312;9.790;2022-11-14T02:27:48;101304.78;;;8.29;95.16
39891;BME280;25564;53.312;9.790;2022-11-14T02:30:20;101288.03;;;8.29;95.66
39891;BME280;25564;53.312;9.790;2022-11-14T02:32:52;101288.91;;;8.29;95.28
39891;BME280;25564;53.312;9.790;2022-11-14T02:35:43;101280.97;;;8.28;95.22
39891;BME280;25564;53.312;9.790;2022-11-14T02:38:15;101276.56;;;8.25;95.39
39891;BME280;25564;53.312;9.790;2022-11-14T02:40:46;101273.03;;;8.23;95.34
39891;BME280;25564;53.312;9.790;2022-11-14T02:43:17;101278.34;;;8.23;95.91
39891;BME280;25564;53.312;9.790;2022-11-14T02:45:49;101265.13;;;8.25;95.47
39891;BME280;25564;53.312;9.790;2022-11-14T02:48:20;101271.28;;;8.25;95.91
39891;BME280;25564;53.312;9.790;2022-11-14T02:50:51;101258.06;;;8.27;95.83
39891;BME280;25564;53.312;9.790;2022-11-14T02:53:22;101248.38;;;8.26;95.76
39891;BME280;25564;53.312;9.790;2022-11-14T02:55:54;101256.31;;;8.24;95.08
39891;BME280;25564;53.312;9.790;2022-11-14T02:58:25;101248.38;;;8.21;95.49
39891;BME280;25564;53.312;9.790;2022-11-14T03:00:56;101257.19;;;8.23;95.77
39891;BME280;25564;53.312;9.790;2022-11-14T03:03:47;101251.91;;;8.22;95.95
39891;BME280;25564;53.312;9.790;2022-11-14T03:06:19;101247.50;;;8.22;95.73
39891;BME280;25564;53.312;9.790;2022-11-14T03:08:50;101233.38;;;8.20;95.26
39891;BME280;25564;53.312;9.790;2022-11-14T03:11:21;101241.31;;;8.20;95.73
39891;BME280;25564;53.312;9.790;2022-11-14T03:13:52;101229.88;;;8.21;95.87
39891;BME280;25564;53.312;9.790;2022-11-14T03:16:24;101236.91;;;8.22;95.75
39891;BME280;25564;53.312;9.790;2022-11-14T03:18:55;101227.22;;;8.21;95.31
39891;BME280;25564;53.312;9.790;2022-11-14T03:21:26;101231.63;;;8.20;95.17
39891;BME280;25564;53.312;9.790;2022-11-14T03:23:57;101231.63;;;8.20;95.50
39891;BME280;25564;53.312;9.790;2022-11-14T03:26:29;101209.59;;;8.20;95.83
39891;BME280;25564;53.312;9.790;2022-11-14T03:29:00;101207.84;;;8.19;95.47
39891;BME280;25564;53.312;9.790;2022-11-14T03:31:31;101210.47;;;8.20;95.44
39891;BME280;25564;53.312;9.790;2022-11-14T03:34:03;101209.59;;;8.20;95.88
39891;BME280;25564;53.312;9.790;2022-11-14T03:36:34;101200.78;;;8.21;95.76
39891;BME280;25564;53.312;9.790;2022-11-14T03:39:06;101213.13;;;8.22;95.36
39891;BME280;25564;53.312;9.790;2022-11-14T03:41:37;101212.25;;;8.25;95.75
39891;BME280;25564;53.312;9.790;2022-11-14T03:44:08;101207.84;;;8.22;95.24
39891;BME280;25564;53.312;9.790;2022-11-14T03:46:39;101199.03;;;8.20;95.43
39891;BME280;25564;53.312;9.790;2022-11-14T03:49:11;101207.84;;;8.19;95.07
39891;BME280;25564;53.312;9.790;2022-11-14T03:51:42;101199.91;;;8.20;95.80
39891;BME280;25564;53.312;9.790;2022-11-14T03:54:13;101195.50;;;8.21;95.84
39891;BME280;25564;53.312;9.790;2022-11-14T03:56:44;101191.97;;;8.22;95.44
39891;BME280;25564;53.312;9.790;2022-11-14T03:59:16;101190.22;;;8.21;95.17
39891;BME280;25564;53.312;9.790;2022-11-14T04:01:47;101191.97;;;8.22;95.71
39891;BME280;25564;53.312;9.790;2022-11-14T04:04:19;101187.56;;;8.23;95.40
39891;BME280;25564;53.312;9.790;2022-11-14T04:06:50;101184.91;;;8.23;95.47
39891;BME280;25564;53.312;9.790;2022-11-14T04:09:21;101177.88;;;8.22;95.73
39891;BME280;25564;53.312;9.790;2022-11-14T04:11:53;101184.03;;;8.24;95.68
39891;BME280;25564;53.312;9.790;2022-11-14T04:14:24;101175.22;;;8.23;95.22
39891;BME280;25564;53.312;9.790;2022-11-14T04:16:55;101176.09;;;8.24;95.66
39891;BME280;25564;53.312;9.790;2022-11-14T04:19:26;101165.53;;;8.22;95.74
39891;BME280;25564;53.312;9.790;2022-11-14T04:21:57;101162.00;;;8.23;95.56
39891;BME280;25564;53.312;9.790;2022-11-14T04:24:29;101152.31;;;8.25;95.80
39891;BME280;25564;53.312;9.790;2022-11-14T04:27:00;101152.31;;;8.27;95.19
39891;BME280;25564;53.312;9.790;2022-11-14T04:29:31;101155.84;;;8.27;95.18
39891;BME280;25564;53.312;9.790;2022-11-14T04:32:02;101154.06;;;8.28;95.27
39891;BME280;25564;53.312;9.790;2022-11-14T04:34:34;101147.91;;;8.27;95.09
39891;BME280;25564;53.312;9.790;2022-11-14T04:37:05;101146.13;;;8.26;95.32
39891;BME280;25564;53.312;9.790;2022-11-14T04:39:36;101141.72;;;8.24;95.25
39891;BME280;25564;53.312;9.790;2022-11-14T04:42:07;101139.97;;;8.23;95.73
39891;BME280;25564;53.312;9.790;2022-11-14T04:44:39;101139.97;;;8.21;94.98
39891;BME280;25564;53.312;9.790;2022-11-14T04:47:10;101136.44;;;8.22;95.55
39891;BME280;25564;53.312;9.790;2022-11-14T04:49:41;101133.81;;;8.22;95.52
39891;BME280;25564;53.312;9.790;2022-11-14T04:52:13;101133.81;;;8.22;95.51
39891;BME280;25564;53.312;9.790;2022-11-14T04:54:44;101132.03;;;8.24;95.60
39891;BME280;25564;53.312;9.790;2022-11-14T04:57:15;101135.56;;;8.25;95.62
39891;BME280;25564;53.312;9.790;2022-11-14T04:59:47;101127.63;;;8.25;95.68
39891;BME280;25564;53.312;9.790;2022-11-14T05:02:19;101140.84;;;8.26;95.36
39891;BME280;25564;53.312;9.790;2022-11-14T05:04:50;101124.09;;;8.24;95.40
39891;BME280;25564;53.312;9.790;2022-11-14T05:07:21;101132.03;;;8.24;95.01
39891;BME280;25564;53.312;9.790;2022-11-14T05:09:53;101125.00;;;8.23;95.39
39891;BME280;25564;53.312;9.790;2022-11-14T05:12:24;101126.75;;;8.21;95.54
39891;BME280;25564;53.312;9.790;2022-11-14T05:14:55;101129.41;;;8.19;95.46
39891;BME280;25564;53.312;9.790;2022-11-14T05:17:27;101117.94;;;8.19;95.62
39891;BME280;25564;53.312;9.790;2022-11-14T05:19:58;101117.06;;;8.20;95.21
39891;BME280;25564;53.312;9.790;2022-11-14T05:22:29;101116.19;;;8.19;95.02
39891;BME280;25564;53.312;9.790;2022-11-14T05:25:00;101110.91;;;8.19;95.25
39891;BME280;25564;53.312;9.790;2022-11-14T05:27:32;101117.06;;;8.18;94.84
39891;BME280;25564;53.312;9.790;2022-11-14T05:30:03;101110.03;;;8.16;94.98
39891;BME280;25564;53.312;9.790;2022-11-14T05:32:34;101107.38;;;8.14;95.36
39891;BME280;25564;53.312;9.790;2022-11-14T05:35:06;101106.50;;;8.15;95.46
39891;BME280;25564;53.312;9.790;2022-11-14T05:37:37;101095.91;;;8.15;95.10
39891;BME280;25564;53.312;9.790;2022-11-14T05:40:09;101103.84;;;8.14;95.24
39891;BME280;25564;53.312;9.790;2022-11-14T05:42:40;101100.34;;;8.12;94.90
39891;BME280;25564;53.312;9.790;2022-11-14T05:45:11;101119.72;;;8.08;94.76
39891;BME280;25564;53.312;9.790;2022-11-14T05:47:42;101103.88;;;8.05;94.71
39891;BME280;25564;53.312;9.790;2022-11-14T05:50:14;101092.44;;;7.87;94.89
39891;BME280;25564;53.312;9.790;2022-11-14T05:52:46;101110.03;;;8.01;95.35
39891;BME280;25564;53.312;9.790;2022-11-14T05:55:17;101102.09;;;8.01;94.85
39891;BME280;25564;53.312;9.790;2022-11-14T05:57:58;101103.88;;;7.99;94.96
39891;BME280;25564;53.312;9.790;2022-11-14T06:00:29;101096.81;;;7.98;94.90
39891;BME280;25564;53.312;9.790;2022-11-14T06:03:06;101103.88;;;7.97;94.82
39891;BME280;25564;53.312;9.790;2022-11-14T06:05:37;101105.63;;;7.97;94.72
39891;BME280;25564;53.312;9.790;2022-11-14T06:08:08;101105.63;;;7.97;94.69
39891;BME280;25564;53.312;9.790;2022-11-14T06:10:39;101117.09;;;7.96;95.04
39891;BME280;25564;53.312;9.790;2022-11-14T06:13:11;101114.44;;;7.96;95.16
39891;BME280;25564;53.312;9.790;2022-11-14T06:15:42;101106.50;;;7.96;94.98
39891;BME280;25564;53.312;9.790;2022-11-14T06:18:13;101113.56;;;7.98;95.20
39891;BME280;25564;53.312;9.790;2022-11-14T06:20:44;101115.31;;;7.98;95.14
39891;BME280;25564;53.312;9.790;2022-11-14T06:23:16;101107.41;;;7.98;94.67
39891;BME280;25564;53.312;9.790;2022-11-14T06:25:58;101110.91;;;7.98;95.19
39891;BME280;25564;53.312;9.790;2022-11-14T06:28:30;101103.88;;;7.96;94.75
39891;BME280;25564;53.312;9.790;2022-11-14T06:31:03;101108.28;;;7.95;95.30
39891;BME280;25564;53.312;9.790;2022-11-14T06:33:35;101107.41;;;7.95;94.79
39891;BME280;25564;53.312;9.790;2022-11-14T06:36:07;101108.28;;;7.94;95.21
39891;BME280;25564;53.312;9.790;2022-11-14T06:38:39;101108.28;;;7.94;94.80
39891;BME280;25564;53.312;9.790;2022-11-14T06:41:11;101110.03;;;7.92;95.10
39891;BME280;25564;53.312;9.790;2022-11-14T06:43:43;101107.41;;;7.92;94.51
39891;BME280;25564;53.312;9.790;2022-11-14T06:46:17;101111.81;;;7.90;94.94
39891;BME280;25564;53.312;9.790;2022-11-14T06:48:48;101110.91;;;7.91;94.95
39891;BME280;25564;53.312;9.790;2022-11-14T06:51:19;101105.63;;;7.91;95.03
39891;BME280;25564;53.312;9.790;2022-11-14T06:53:51;101090.66;;;7.93;95.00
39891;BME280;25564;53.312;9.790;2022-11-14T06:56:22;101099.47;;;7.93;95.51
39891;BME280;25564;53.312;9.790;2022-11-14T06:58:53;101104.75;;;7.95;94.81
39891;BME280;25564;53.312;9.790;2022-11-14T07:01:24;101098.59;;;7.93;94.53
39891;BME280;25564;53.312;9.790;2022-11-14T07:03:56;101102.13;;;7.88;94.66
39891;BME280;25564;53.312;9.790;2022-11-14T07:06:29;101106.50;;;7.86;94.72
39891;BME280;25564;53.312;9.790;2022-11-14T07:09:00;101103.88;;;7.83;94.80
39891;BME280;25564;53.312;9.790;2022-11-14T07:11:31;101112.69;;;7.81;95.16
39891;BME280;25564;53.312;9.790;2022-11-14T07:14:05;101112.69;;;7.79;95.01
39891;BME280;25564;53.312;9.790;2022-11-14T07:16:36;101117.97;;;7.79;95.06
39891;BME280;25564;53.312;9.790;2022-11-14T07:19:09;101107.41;;;7.79;94.78
39891;BME280;25564;53.312;9.790;2022-11-14T07:21:40;101112.69;;;7.79;95.09
39891;BME280;25564;53.312;9.790;2022-11-14T07:24:12;101112.69;;;7.79;94.87
39891;BME280;25564;53.312;9.790;2022-11-14T07:26:44;101114.44;;;7.80;95.30
39891;BME280;25564;53.312;9.790;2022-11-14T07:29:15;101114.44;;;7.80;95.23
39891;BME280;25564;53.312;9.790;2022-11-14T07:31:46;101110.03;;;7.79;95.05
39891;BME280;25564;53.312;9.790;2022-11-14T07:34:18;101109.16;;;7.80;94.97
39891;BME280;25564;53.312;9.790;2022-11-14T07:36:49;101109.16;;;7.80;94.97
39891;BME280;25564;53.312;9.790;2022-11-14T07:39:20;101111.81;;;7.82;95.20
39891;BME280;25564;53.312;9.790;2022-11-14T07:41:52;101108.28;;;7.83;95.41
39891;BME280;25564;53.312;9.790;2022-11-14T07:44:23;101099.47;;;7.84;94.95
39891;BME280;25564;53.312;9.790;2022-11-14T07:46:54;101102.13;;;7.85;94.87
39891;BME280;25564;53.312;9.790;2022-11-14T07:49:25;101094.19;;;7.85;95.01
39891;BME280;25564;53.312;9.790;2022-11-14T07:51:56;101096.81;;;7.85;94.90
39891;BME280;25564;53.312;9.790;2022-11-14T07:54:28;101090.66;;;7.86;95.18
39891;BME280;25564;53.312;9.790;2022-11-14T07:56:59;101088.91;;;7.88;95.24
39891;BME280;25564;53.312;9.790;2022-11-14T07:59:30;101087.13;;;7.92;94.83
39891;BME280;25564;53.312;9.790;2022-11-14T08:02:01;101078.31;;;7.93;94.87
39891;BME280;25564;53.312;9.790;2022-11-14T08:04:33;101071.28;;;7.95;94.92
39891;BME280;25564;53.312;9.790;2022-11-14T08:07:04;101075.69;;;8.01;94.72
39891;BME280;25564;53.312;9.790;2022-11-14T08:09:35;101081.84;;;8.06;95.33
39891;BME280;25564;53.312;9.790;2022-11-14T08:12:06;101082.72;;;8.08;94.96
39891;BME280;25564;53.312;9.790;2022-11-14T08:14:38;101088.00;;;8.08;94.92
39891;BME280;25564;53.312;9.790;2022-11-14T08:17:09;101085.34;;;8.08;95.19
39891;BME280;25564;53.312;9.790;2022-11-14T08:19:40;101084.47;;;8.09;95.41
39891;BME280;25564;53.312;9.790;2022-11-14T08:22:12;101089.75;;;8.13;94.92
39891;BME280;25564;53.312;9.790;2022-11-14T08:24:43;101080.06;;;8.18;95.25
39891;BME280;25564;53.312;9.790;2022-11-14T08:27:14;101092.38;;;8.19;94.97
39891;BME280;25564;53.312;9.790;2022-11-14T08:29:45;101096.78;;;8.19;94.84
39891;BME280;25564;53.312;9.790;2022-11-14T08:32:17;101100.31;;;8.21;94.47
39891;BME280;25564;53.312;9.790;2022-11-14T08:34:48;101095.03;;;8.21;94.72
39891;BME280;25564;53.312;9.790;2022-11-14T08:37:20;101091.50;;;8.22;94.92
39891;BME280;25564;53.312;9.790;2022-11-14T08:39:51;101092.38;;;8.24;94.65
39891;BME280;25564;53.312;9.790;2022-11-14T08:42:22;101084.44;;;8.24;94.96
39891;BME280;25564;53.312;9.790;2022-11-14T08:44:53;101091.50;;;8.28;94.91
39891;BME280;25564;53.312;9.790;2022-11-14T08:47:25;101084.44;;;8.30;94.78
39891;BME280;25564;53.312;9.790;2022-11-14T08:49:56;101089.72;;;8.32;94.82
39891;BME280;25564;53.312;9.790;2022-11-14T08:52:28;101087.97;;;8.29;95.19
39891;BME280;25564;53.312;9.790;2022-11-14T08:54:59;101089.72;;;8.29;94.63
39891;BME280;25564;53.312;9.790;2022-11-14T08:57:30;101075.63;;;8.25;94.64
39891;BME280;25564;53.312;9.790;2022-11-14T09:00:02;101090.63;;;8.25;94.81
39891;BME280;25564;53.312;9.790;2022-11-14T09:02:33;101082.69;;;8.26;94.95
39891;BME280;25564;53.312;9.790;2022-11-14T09:05:04;101081.78;;;8.30;95.25
39891;BME280;25564;53.312;9.790;2022-11-14T09:07:36;101080.91;;;8.34;95.35
39891;BME280;25564;53.312;9.790;2022-11-14T09:10:07;101083.53;;;8.36;95.33
39891;BME280;25564;53.312;9.790;2022-11-14T09:12:39;101082.66;;;8.38;95.01
39891;BME280;25564;53.312;9.790;2022-11-14T09:15:10;101074.72;;;8.40;94.55
39891;BME280;25564;53.312;9.790;2022-11-14T09:17:41;101069.41;;;8.43;94.58
39891;BME280;25564;53.312;9.790;2022-11-14T09:20:13;101067.63;;;8.48;95.16
39891;BME280;25564;53.312;9.790;2022-11-14T09:22:44;101072.91;;;8.51;95.14
39891;BME280;25564;53.312;9.790;2022-11-14T09:25:16;101072.03;;;8.55;94.92
39891;BME280;25564;53.312;9.790;2022-11-14T09:27:47;101061.44;;;8.57;95.35
39891;BME280;25564;53.312;9.790;2022-11-14T09:30:18;101065.84;;;8.59;95.32
39891;BME280;25564;53.312;9.790;2022-11-14T09:32:49;101059.66;;;8.62;95.20
39891;BME280;25564;53.312;9.790;2022-11-14T09:35:21;101067.59;;;8.60;95.38
39891;BME280;25564;53.312;9.790;2022-11-14T09:38:05;101065.81;;;8.62;94.75
39891;BME280;25564;53.312;9.790;2022-11-14T09:43:29;101056.97;;;8.71;95.04
39891;BME280;25564;53.312;9.790;2022-11-14T09:46:11;101056.06;;;8.75;95.43
39891;BME280;25564;53.312;9.790;2022-11-14T09:48:46;101060.47;;;8.79;94.81
39891;BME280;25564;53.312;9.790;2022-11-14T09:51:19;101061.34;;;8.78;94.59
39891;BME280;25564;53.312;9.790;2022-11-14T09:53:52;101064.88;;;8.78;95.08
39891;BME280;25564;53.312;9.790;2022-11-14T09:56:26;101050.75;;;8.82;94.68
39891;BME280;25564;53.312;9.790;2022-11-14T09:58:57;101054.25;;;8.86;94.90
39891;BME280;25564;53.312;9.790;2022-11-14T10:04:18;101049.78;;;8.94;95.27
39891;BME280;25564;53.312;9.790;2022-11-14T10:06:57;101042.72;;;8.98;94.65
39891;BME280;25564;53.312;9.790;2022-11-14T10:09:34;101036.50;;;9.05;95.51
39891;BME280;25564;53.312;9.790;2022-11-14T10:12:13;101035.56;;;9.13;95.47
39891;BME280;25564;53.312;9.790;2022-11-14T10:14:56;101024.06;;;9.17;94.77
39891;BME280;25564;53.312;9.790;2022-11-14T10:17:50;101018.72;;;9.24;95.15
39891;BME280;25564;53.312;9.790;2022-11-14T10:20:29;101023.06;;;9.32;95.02
39891;BME280;25564;53.312;9.790;2022-11-14T10:23:14;101010.69;;;9.36;95.03
39891;BME280;25564;53.312;9.790;2022-11-14T10:30:59;101005.25;;;9.48;95.18
39891;BME280;25564;53.312;9.790;2022-11-14T10:33:35;100995.44;;;9.59;95.25
39891;BME280;25564;53.312;9.790;2022-11-14T10:36:41;100984.72;;;9.71;94.97
39891;BME280;25564;53.312;9.790;2022-11-14T10:41:48;100996.94;;;9.88;95.12
39891;BME280;25564;53.312;9.790;2022-11-14T10:44:35;100987.16;;;9.93;94.88
39891;BME280;25564;53.312;9.790;2022-11-14T10:47:10;100978.28;;;9.98;95.07
39891;BME280;25564;53.312;9.790;2022-11-14T10:49:42;100977.28;;;10.07;95.11
39891;BME280;25564;53.312;9.790;2022-11-14T10:52:17;100964.81;;;10.15;94.96
39891;BME280;25564;53.312;9.790;2022-11-14T10:54:51;100967.47;;;10.16;94.80
39891;BME280;25564;53.312;9.790;2022-11-14T10:57:26;100963.00;;;10.19;94.72
39891;BME280;25564;53.312;9.790;2022-11-14T10:59:58;100947.97;;;10.22;94.71
39891;BME280;25564;53.312;9.790;2022-11-14T11:02:38;100942.69;;;10.22;94.51
39891;BME280;25564;53.312;9.790;2022-11-14T11:05:17;100940.00;;;10.24;94.74
39891;BME280;25564;53.312;9.790;2022-11-14T11:07:49;100939.09;;;10.25;94.59
39891;BME280;25564;53.312;9.790;2022-11-14T11:10:59;100940.84;;;10.26;94.44
39891;BME280;25564;53.312;9.790;2022-11-14T11:13:51;100934.72;;;10.21;94.31
39891;BME280;25564;53.312;9.790;2022-11-14T11:16:24;100916.19;;;10.18;94.61
39891;BME280;25564;53.312;9.790;2022-11-14T11:19:20;100917.94;;;10.20;94.54
39891;BME280;25564;53.312;9.790;2022-11-14T11:21:52;100905.53;;;10.24;94.33
39891;BME280;25564;53.312;9.790;2022-11-14T11:24:30;100905.56;;;10.21;94.17
39891;BME280;25564;53.312;9.790;2022-11-14T11:32:36;100880.28;;;9.91;92.92
39891;BME280;25564;53.312;9.790;2022-11-14T11:35:11;100876.88;;;9.79;92.46
39891;BME280;25564;53.312;9.790;2022-11-14T11:37:44;100867.28;;;9.68;92.74
39891;BME280;25564;53.312;9.790;2022-11-14T11:40:18;100866.47;;;9.61;93.08
39891;BME280;25564;53.312;9.790;2022-11-14T11:45:47;100875.31;;;9.60;93.57
39891;BME280;25564;53.312;9.790;2022-11-14T11:48:33;100877.06;;;9.63;93.92
39891;BME280;25564;53.312;9.790;2022-11-14T11:51:12;100892.94;;;9.64;93.81
39891;BME280;25564;53.312;9.790;2022-11-14T11:53:56;100903.50;;;9.67;93.84
39891;BME280;25564;53.312;9.790;2022-11-14T11:56:31;100906.13;;;9.72;93.83
39891;BME280;25564;53.312;9.790;2022-11-14T11:59:12;100914.88;;;9.78;93.69
39891;BME280;25564;53.312;9.790;2022-11-14T12:01:45;100925.41;;;9.83;93.82
39891;BME280;25564;53.312;9.790;2022-11-14T12:04:16;100932.44;;;9.87;93.89
39891;BME280;25564;53.312;9.790;2022-11-14T12:06:50;100912.97;;;9.90;94.06
39891;BME280;25564;53.312;9.790;2022-11-14T12:09:26;100910.28;;;9.94;93.89
39891;BME280;25564;53.312;9.790;2022-11-14T12:15:09;100901.41;;;9.97;93.53
39891;BME280;25564;53.312;9.790;2022-11-14T12:20:49;100901.38;;;9.98;93.69
39891;BME280;25564;53.312;9.790;2022-11-14T12:23:44;100914.63;;;10.00;93.89
39891;BME280;25564;53.312;9.790;2022-11-14T12:26:21;100896.06;;;10.00;93.64
39891;BME280;25564;53.312;9.790;2022-11-14T12:31:56;100903.09;;;10.02;93.41
39891;BME280;25564;53.312;9.790;2022-11-14T12:34:30;100896.03;;;10.03;93.34
39891;BME280;25564;53.312;9.790;2022-11-14T12:37:07;100882.78;;;10.03;93.62
39891;BME280;25564;53.312;9.790;2022-11-14T12:39:39;100881.84;;;10.07;93.81
39891;BME280;25564;53.312;9.790;2022-11-14T12:42:11;100882.69;;;10.09;93.47
39891;BME280;25564;53.312;9.790;2022-11-14T12:44:45;100885.31;;;10.10;93.12
39891;BME280;25564;53.312;9.790;2022-11-14T12:47:26;100888.84;;;10.11;93.44
39891;BME280;25564;53.312;9.790;2022-11-14T12:49:59;100891.47;;;10.14;93.14
39891;BME280;25564;53.312;9.790;2022-11-14T12:57:52;100879.03;;;10.19;93.76
39891;BME280;25564;53.312;9.790;2022-11-14T13:00:31;100883.44;;;10.23;93.28
39891;BME280;25564;53.312;9.790;2022-11-14T13:05:56;100867.44;;;10.29;93.07
39891;BME280;25564;53.312;9.790;2022-11-14T13:11:15;100868.31;;;10.30;93.20
39891;BME280;25564;53.312;9.790;2022-11-14T13:14:11;100870.94;;;10.31;93.12
39891;BME280;25564;53.312;9.790;2022-11-14T13:20:24;100879.78;;;10.32;93.23
39891;BME280;25564;53.312;9.790;2022-11-14T13:28:43;100870.06;;;10.31;92.97
39891;BME280;25564;53.312;9.790;2022-11-14T13:33:47;100864.81;;;10.28;93.24
39891;BME280;25564;53.312;9.790;2022-11-14T13:36:38;100863.91;;;10.27;93.38
39891;BME280;25564;53.312;9.790;2022-11-14T13:42:15;100857.78;;;10.24;93.39
39891;BME280;25564;53.312;9.790;2022-11-14T13:50:18;100854.25;;;10.23;93.51
39891;BME280;25564;53.312;9.790;2022-11-14T13:52:49;100862.16;;;10.26;93.48
39891;BME280;25564;53.312;9.790;2022-11-14T13:55:31;100854.16;;;10.29;93.59
39891;BME280;25564;53.312;9.790;2022-11-14T13:58:13;100846.16;;;10.32;93.60
39891;BME280;25564;53.312;9.790;2022-11-14T14:09:31;100813.47;;;10.30;93.35
39891;BME280;25564;53.312;9.790;2022-11-14T14:20:20;100813.78;;;10.07;92.94
39891;BME280;25564;53.312;9.790;2022-11-14T14:25:43;100801.56;;;9.96;92.92
39891;BME280;25564;53.312;9.790;2022-11-14T14:28:23;100809.59;;;9.91;93.13
39891;BME280;25564;53.312;9.790;2022-11-14T14:31:12;100804.34;;;9.87;92.92
39891;BME280;25564;53.312;9.790;2022-11-14T14:33:45;100803.53;;;9.81;93.12
39891;BME280;25564;53.312;9.790;2022-11-14T14:36:21;100801.78;;;9.79;92.99
39891;BME280;25564;53.312;9.790;2022-11-14T14:41:43;100795.72;;;9.69;93.20
39891;BME280;25564;53.312;9.790;2022-11-14T14:44:36;100790.47;;;9.66;92.82
39891;BME280;25564;53.312;9.790;2022-11-14T14:47:16;100787.00;;;9.61;92.74
39891;BME280;25564;53.312;9.790;2022-11-14T14:49:47;100787.06;;;9.55;92.66
39891;BME280;25564;53.312;9.790;2022-11-14T14:52:34;100785.34;;;9.51;93.00
39891;BME280;25564;53.312;9.790;2022-11-14T14:55:28;100788.94;;;9.47;92.72
39891;BME280;25564;53.312;9.790;2022-11-14T15:00:55;100790.00;;;9.35;92.72
39891;BME280;25564;53.312;9.790;2022-11-14T15:03:41;100779.47;;;9.29;93.01